Doddsville, Mississippi
Current Conditions -  °F | °C
As of 10:35 PM on Monday 22 Dec 2014 (Local Time) from KRNV Reporting Station
Haze Haze  
Wind Chill: 56°   Ceiling: Unl
Heat Index: 56°   Visibility: 2.5mi
Dew Point: 56°   Wind: 6mph
Humidity: 100%   Direction: 190°S
Pressure: 29.66"   Gusts: NA
Location:  33.66°N, 90.52°W
Report Text: KRNV 230435Z AUTO 19005KT 2 1/2SM BR CLR 14/14 A2966 RMK AO2 LTG DSNT E T01360136
Loading
Personal Weather Stations






























Interactive Weather Map New forecast layout! Learn more

10-Day Weather Forecast

Advertisements
Track Severe Weather on mobile